sensor_id;sensor_type;location;lat;lon;timestamp;pressure;altitude;pressure_sealevel;temperature;humidity
45813;BME280;31519;45.408;10.962;2023-03-04T00:02:02;100959.84;;;12.03;67.00
45813;BME280;31519;45.408;10.962;2023-03-04T00:04:30;100957.69;;;12.05;66.77
45813;BME280;31519;45.408;10.962;2023-03-04T00:06:57;100965.19;;;12.03;66.89
45813;BME280;31519;45.408;10.962;2023-03-04T00:09:26;100963.25;;;11.95;66.92
45813;BME280;31519;45.408;10.962;2023-03-04T00:11:53;100960.75;;;11.98;66.68
45813;BME280;31519;45.408;10.962;2023-03-04T00:14:21;100957.41;;;11.93;67.30
45813;BME280;31519;45.408;10.962;2023-03-04T00:16:50;100949.28;;;11.98;66.69
45813;BME280;31519;45.408;10.962;2023-03-04T00:19:18;100961.19;;;11.78;67.17
45813;BME280;31519;45.408;10.962;2023-03-04T00:21:46;100956.97;;;11.77;67.04
45813;BME280;31519;45.408;10.962;2023-03-04T00:24:13;100957.63;;;11.83;67.24
45813;BME280;31519;45.408;10.962;2023-03-04T00:26:41;100961.53;;;11.77;67.20
45813;BME280;31519;45.408;10.962;2023-03-04T00:29:09;100951.66;;;11.99;66.94
45813;BME280;31519;45.408;10.962;2023-03-04T00:31:36;100950.38;;;12.19;65.93
45813;BME280;31519;45.408;10.962;2023-03-04T00:34:04;100961.84;;;11.97;66.37
45813;BME280;31519;45.408;10.962;2023-03-04T00:36:32;100956.84;;;11.96;66.51
45813;BME280;31519;45.408;10.962;2023-03-04T00:39:00;100955.78;;;12.06;66.19
45813;BME280;31519;45.408;10.962;2023-03-04T00:41:28;100962.06;;;11.87;66.25
45813;BME280;31519;45.408;10.962;2023-03-04T00:43:56;100960.19;;;11.88;66.10
45813;BME280;31519;45.408;10.962;2023-03-04T00:46:23;100949.47;;;12.02;65.79
45813;BME280;31519;45.408;10.962;2023-03-04T00:48:51;100944.28;;;11.69;67.03
45813;BME280;31519;45.408;10.962;2023-03-04T00:51:19;100954.88;;;11.74;66.73
45813;BME280;31519;45.408;10.962;2023-03-04T00:53:47;100950.88;;;11.49;67.69
45813;BME280;31519;45.408;10.962;2023-03-04T00:56:14;100948.50;;;11.34;68.61
45813;BME280;31519;45.408;10.962;2023-03-04T00:58:42;100959.75;;;11.45;68.47
45813;BME280;31519;45.408;10.962;2023-03-04T01:01:10;100957.88;;;11.73;66.70
45813;BME280;31519;45.408;10.962;2023-03-04T01:03:38;100952.06;;;11.43;67.82
45813;BME280;31519;45.408;10.962;2023-03-04T01:06:07;100946.34;;;11.36;68.31
45813;BME280;31519;45.408;10.962;2023-03-04T01:08:36;100946.91;;;11.33;68.25
45813;BME280;31519;45.408;10.962;2023-03-04T01:11:03;100947.88;;;11.51;67.97
45813;BME280;31519;45.408;10.962;2023-03-04T01:13:32;100939.78;;;11.56;67.69
45813;BME280;31519;45.408;10.962;2023-03-04T01:15:59;100943.31;;;11.65;67.04
45813;BME280;31519;45.408;10.962;2023-03-04T01:18:27;100942.56;;;11.51;67.25
45813;BME280;31519;45.408;10.962;2023-03-04T01:20:55;100931.44;;;11.22;68.27
45813;BME280;31519;45.408;10.962;2023-03-04T01:23:23;100927.34;;;11.38;68.04
45813;BME280;31519;45.408;10.962;2023-03-04T01:25:51;100928.03;;;11.43;67.65
45813;BME280;31519;45.408;10.962;2023-03-04T01:28:19;100932.50;;;11.34;68.21
45813;BME280;31519;45.408;10.962;2023-03-04T01:30:47;100927.75;;;11.45;67.78
45813;BME280;31519;45.408;10.962;2023-03-04T01:33:16;100925.91;;;11.32;67.70
45813;BME280;31519;45.408;10.962;2023-03-04T01:35:44;100923.53;;;11.17;68.15
45813;BME280;31519;45.408;10.962;2023-03-04T01:38:12;100920.75;;;11.22;68.44
45813;BME280;31519;45.408;10.962;2023-03-04T01:40:40;100929.06;;;11.06;68.55
45813;BME280;31519;45.408;10.962;2023-03-04T01:43:10;100925.03;;;11.23;67.96
45813;BME280;31519;45.408;10.962;2023-03-04T01:45:42;100921.34;;;11.05;69.14
45813;BME280;31519;45.408;10.962;2023-03-04T01:48:10;100921.03;;;11.34;68.00
45813;BME280;31519;45.408;10.962;2023-03-04T01:50:40;100917.38;;;11.43;67.69
45813;BME280;31519;45.408;10.962;2023-03-04T01:53:09;100917.09;;;11.31;68.11
45813;BME280;31519;45.408;10.962;2023-03-04T01:55:42;100917.69;;;11.01;68.93
45813;BME280;31519;45.408;10.962;2023-03-04T01:58:11;100922.31;;;10.95;69.56
45813;BME280;31519;45.408;10.962;2023-03-04T02:00:39;100915.53;;;11.03;69.54
45813;BME280;31519;45.408;10.962;2023-03-04T02:03:09;100912.06;;;11.02;69.48
45813;BME280;31519;45.408;10.962;2023-03-04T02:05:40;100912.16;;;11.25;68.72
45813;BME280;31519;45.408;10.962;2023-03-04T02:08:09;100901.69;;;11.01;69.29
45813;BME280;31519;45.408;10.962;2023-03-04T02:10:37;100905.13;;;11.42;68.18
45813;BME280;31519;45.408;10.962;2023-03-04T02:13:05;100904.25;;;11.33;67.96
45813;BME280;31519;45.408;10.962;2023-03-04T02:15:33;100901.69;;;11.28;68.34
45813;BME280;31519;45.408;10.962;2023-03-04T02:18:01;100901.25;;;11.48;67.93
45813;BME280;31519;45.408;10.962;2023-03-04T02:23:02;100899.91;;;11.24;68.78
45813;BME280;31519;45.408;10.962;2023-03-04T02:25:44;100896.59;;;11.18;68.79
45813;BME280;31519;45.408;10.962;2023-03-04T02:28:13;100901.78;;;11.23;68.52
45813;BME280;31519;45.408;10.962;2023-03-04T02:30:41;100899.22;;;11.32;68.28
45813;BME280;31519;45.408;10.962;2023-03-04T02:33:14;100897.94;;;11.16;68.50
45813;BME280;31519;45.408;10.962;2023-03-04T02:35:42;100895.00;;;11.17;68.50
45813;BME280;31519;45.408;10.962;2023-03-04T02:38:10;100899.97;;;11.46;68.08
45813;BME280;31519;45.408;10.962;2023-03-04T02:40:38;100896.97;;;11.25;68.53
45813;BME280;31519;45.408;10.962;2023-03-04T02:43:09;100892.28;;;11.44;67.49
45813;BME280;31519;45.408;10.962;2023-03-04T02:45:40;100890.81;;;11.25;68.38
45813;BME280;31519;45.408;10.962;2023-03-04T02:48:09;100886.09;;;11.22;68.68
45813;BME280;31519;45.408;10.962;2023-03-04T02:50:40;100879.91;;;10.99;69.42
45813;BME280;31519;45.408;10.962;2023-03-04T02:53:09;100881.88;;;11.07;69.47
45813;BME280;31519;45.408;10.962;2023-03-04T02:55:37;100880.78;;;11.22;69.05
45813;BME280;31519;45.408;10.962;2023-03-04T02:58:06;100881.59;;;10.95;69.94
45813;BME280;31519;45.408;10.962;2023-03-04T03:00:35;100882.34;;;11.23;69.51
45813;BME280;31519;45.408;10.962;2023-03-04T03:03:04;100875.91;;;11.24;69.17
45813;BME280;31519;45.408;10.962;2023-03-04T03:05:35;100874.56;;;11.13;69.27
45813;BME280;31519;45.408;10.962;2023-03-04T03:08:03;100877.22;;;11.13;69.39
45813;BME280;31519;45.408;10.962;2023-03-04T03:10:31;100872.38;;;11.15;69.52
45813;BME280;31519;45.408;10.962;2023-03-04T03:12:59;100867.84;;;11.01;69.66
45813;BME280;31519;45.408;10.962;2023-03-04T03:15:27;100867.22;;;11.04;69.71
45813;BME280;31519;45.408;10.962;2023-03-04T03:17:55;100861.72;;;11.01;69.91
45813;BME280;31519;45.408;10.962;2023-03-04T03:20:23;100869.81;;;11.09;69.29
45813;BME280;31519;45.408;10.962;2023-03-04T03:22:51;100862.69;;;11.05;69.53
45813;BME280;31519;45.408;10.962;2023-03-04T03:25:19;100861.81;;;10.96;69.98
45813;BME280;31519;45.408;10.962;2023-03-04T03:27:47;100866.25;;;10.87;70.18
45813;BME280;31519;45.408;10.962;2023-03-04T03:30:16;100868.03;;;10.91;70.34
45813;BME280;31519;45.408;10.962;2023-03-04T03:32:44;100866.25;;;10.87;70.17
45813;BME280;31519;45.408;10.962;2023-03-04T03:35:12;100861.16;;;10.77;70.84
45813;BME280;31519;45.408;10.962;2023-03-04T03:37:40;100865.88;;;10.80;70.74
45813;BME280;31519;45.408;10.962;2023-03-04T03:40:08;100864.56;;;10.77;70.84
45813;BME280;31519;45.408;10.962;2023-03-04T03:42:36;100860.94;;;10.73;71.30
45813;BME280;31519;45.408;10.962;2023-03-04T03:45:04;100861.03;;;10.68;71.26
45813;BME280;31519;45.408;10.962;2023-03-04T03:47:32;100865.56;;;10.54;71.78
45813;BME280;31519;45.408;10.962;2023-03-04T03:50:00;100865.69;;;10.76;71.17
45813;BME280;31519;45.408;10.962;2023-03-04T03:52:28;100866.25;;;10.73;71.04
45813;BME280;31519;45.408;10.962;2023-03-04T03:54:56;100858.84;;;10.43;71.77
45813;BME280;31519;45.408;10.962;2023-03-04T03:57:24;100860.03;;;10.64;71.30
45813;BME280;31519;45.408;10.962;2023-03-04T03:59:52;100853.72;;;10.46;71.60
45813;BME280;31519;45.408;10.962;2023-03-04T04:02:20;100859.47;;;10.53;72.21
45813;BME280;31519;45.408;10.962;2023-03-04T04:04:48;100854.56;;;10.28;72.24
45813;BME280;31519;45.408;10.962;2023-03-04T04:07:16;100853.19;;;10.17;72.73
45813;BME280;31519;45.408;10.962;2023-03-04T04:09:44;100858.53;;;10.31;72.29
45813;BME280;31519;45.408;10.962;2023-03-04T04:12:16;100857.75;;;10.30;72.57
45813;BME280;31519;45.408;10.962;2023-03-04T04:14:44;100854.72;;;10.18;72.91
45813;BME280;31519;45.408;10.962;2023-03-04T04:17:12;100857.50;;;10.27;72.50
45813;BME280;31519;45.408;10.962;2023-03-04T04:19:40;100859.69;;;10.25;72.83
45813;BME280;31519;45.408;10.962;2023-03-04T04:22:18;100862.47;;;10.33;72.53
45813;BME280;31519;45.408;10.962;2023-03-04T04:24:47;100870.69;;;10.50;71.66
45813;BME280;31519;45.408;10.962;2023-03-04T04:27:15;100865.00;;;10.25;71.98
45813;BME280;31519;45.408;10.962;2023-03-04T04:29:43;100868.84;;;10.18;72.72
45813;BME280;31519;45.408;10.962;2023-03-04T04:32:11;100860.84;;;10.18;72.86
45813;BME280;31519;45.408;10.962;2023-03-04T04:34:39;100865.53;;;10.08;73.07
45813;BME280;31519;45.408;10.962;2023-03-04T04:37:07;100867.56;;;9.97;73.58
45813;BME280;31519;45.408;10.962;2023-03-04T04:39:35;100868.97;;;10.08;73.54
45813;BME280;31519;45.408;10.962;2023-03-04T04:42:03;100871.63;;;10.27;72.74
45813;BME280;31519;45.408;10.962;2023-03-04T04:44:31;100880.13;;;10.43;71.77
45813;BME280;31519;45.408;10.962;2023-03-04T04:46:59;100877.78;;;9.90;73.92
45813;BME280;31519;45.408;10.962;2023-03-04T04:49:26;100884.47;;;9.69;75.47
45813;BME280;31519;45.408;10.962;2023-03-04T04:51:54;100885.06;;;9.47;75.11
45813;BME280;31519;45.408;10.962;2023-03-04T04:54:22;100883.03;;;8.97;77.92
45813;BME280;31519;45.408;10.962;2023-03-04T04:56:50;100884.25;;;9.04;78.14
45813;BME280;31519;45.408;10.962;2023-03-04T04:59:17;100890.53;;;9.13;77.59
45813;BME280;31519;45.408;10.962;2023-03-04T05:01:45;100896.00;;;9.22;77.80
45813;BME280;31519;45.408;10.962;2023-03-04T05:04:13;100895.13;;;8.84;79.71
45813;BME280;31519;45.408;10.962;2023-03-04T05:06:41;100888.88;;;9.17;78.29
45813;BME280;31519;45.408;10.962;2023-03-04T05:09:09;100897.44;;;9.14;78.50
45813;BME280;31519;45.408;10.962;2023-03-04T05:11:37;100885.91;;;9.43;77.41
45813;BME280;31519;45.408;10.962;2023-03-04T05:14:05;100888.28;;;9.44;77.80
45813;BME280;31519;45.408;10.962;2023-03-04T05:16:33;100890.91;;;9.07;78.60
45813;BME280;31519;45.408;10.962;2023-03-04T05:19:00;100885.63;;;9.02;79.39
45813;BME280;31519;45.408;10.962;2023-03-04T05:21:28;100890.84;;;9.12;79.22
45813;BME280;31519;45.408;10.962;2023-03-04T05:23:56;100882.19;;;9.01;80.33
45813;BME280;31519;45.408;10.962;2023-03-04T05:26:24;100879.19;;;9.26;79.27
45813;BME280;31519;45.408;10.962;2023-03-04T05:28:51;100881.16;;;9.40;78.65
45813;BME280;31519;45.408;10.962;2023-03-04T05:31:20;100883.94;;;8.87;81.72
45813;BME280;31519;45.408;10.962;2023-03-04T05:33:47;100884.56;;;9.03;81.23
45813;BME280;31519;45.408;10.962;2023-03-04T05:36:15;100895.16;;;9.26;80.35
45813;BME280;31519;45.408;10.962;2023-03-04T05:38:43;100885.44;;;9.17;80.44
45813;BME280;31519;45.408;10.962;2023-03-04T05:41:11;100893.75;;;9.34;79.96
45813;BME280;31519;45.408;10.962;2023-03-04T05:43:39;100891.19;;;9.48;79.70
45813;BME280;31519;45.408;10.962;2023-03-04T05:46:12;100881.88;;;9.45;79.66
45813;BME280;31519;45.408;10.962;2023-03-04T05:48:40;100884.88;;;9.62;79.29
45813;BME280;31519;45.408;10.962;2023-03-04T05:51:08;100887.72;;;9.47;79.13
45813;BME280;31519;45.408;10.962;2023-03-04T05:53:36;100887.13;;;9.50;79.50
45813;BME280;31519;45.408;10.962;2023-03-04T05:56:06;100898.22;;;9.39;79.58
45813;BME280;31519;45.408;10.962;2023-03-04T05:58:35;100887.16;;;9.69;78.84
45813;BME280;31519;45.408;10.962;2023-03-04T06:01:03;100886.50;;;9.77;78.02
45813;BME280;31519;45.408;10.962;2023-03-04T06:03:31;100888.59;;;9.61;78.49
45813;BME280;31519;45.408;10.962;2023-03-04T06:05:59;100897.19;;;9.53;78.97
45813;BME280;31519;45.408;10.962;2023-03-04T06:08:27;100896.97;;;9.50;79.32
45813;BME280;31519;45.408;10.962;2023-03-04T06:10:55;100904.69;;;9.51;79.03
45813;BME280;31519;45.408;10.962;2023-03-04T06:13:23;100905.31;;;9.43;78.87
45813;BME280;31519;45.408;10.962;2023-03-04T06:15:52;100901.31;;;9.64;78.76
45813;BME280;31519;45.408;10.962;2023-03-04T06:18:20;100901.31;;;9.83;78.23
45813;BME280;31519;45.408;10.962;2023-03-04T06:20:48;100902.22;;;9.55;78.59
45813;BME280;31519;45.408;10.962;2023-03-04T06:23:16;100897.44;;;9.75;78.53
45813;BME280;31519;45.408;10.962;2023-03-04T06:25:44;100899.84;;;9.91;77.78
45813;BME280;31519;45.408;10.962;2023-03-04T06:28:11;100911.59;;;9.71;78.12
45813;BME280;31519;45.408;10.962;2023-03-04T06:30:40;100909.50;;;9.68;78.58
45813;BME280;31519;45.408;10.962;2023-03-04T06:33:07;100907.28;;;9.75;78.40
45813;BME280;31519;45.408;10.962;2023-03-04T06:35:35;100916.59;;;10.10;76.79
45813;BME280;31519;45.408;10.962;2023-03-04T06:38:03;100909.59;;;10.14;77.08
45813;BME280;31519;45.408;10.962;2023-03-04T06:40:31;100915.94;;;9.99;77.18
45813;BME280;31519;45.408;10.962;2023-03-04T06:42:59;100920.84;;;10.30;76.26
45813;BME280;31519;45.408;10.962;2023-03-04T06:45:27;100919.56;;;10.41;75.68
45813;BME280;31519;45.408;10.962;2023-03-04T06:47:54;100919.63;;;10.03;77.56
45813;BME280;31519;45.408;10.962;2023-03-04T06:50:22;100918.13;;;9.97;78.42
45813;BME280;31519;45.408;10.962;2023-03-04T06:52:50;100919.63;;;10.03;78.23
45813;BME280;31519;45.408;10.962;2023-03-04T06:55:18;100922.44;;;10.12;78.01
45813;BME280;31519;45.408;10.962;2023-03-04T06:57:46;100922.34;;;10.36;76.90
45813;BME280;31519;45.408;10.962;2023-03-04T07:00:15;100924.81;;;10.46;77.04
45813;BME280;31519;45.408;10.962;2023-03-04T07:02:43;100930.97;;;10.60;75.94
45813;BME280;31519;45.408;10.962;2023-03-04T07:05:11;100927.53;;;10.73;75.66
45813;BME280;31519;45.408;10.962;2023-03-04T07:07:39;100928.94;;;10.71;75.79
45813;BME280;31519;45.408;10.962;2023-03-04T07:10:07;100928.16;;;10.97;74.46
45813;BME280;31519;45.408;10.962;2023-03-04T07:12:36;100929.25;;;10.96;74.08
45813;BME280;31519;45.408;10.962;2023-03-04T07:15:04;100932.31;;;11.03;73.84
45813;BME280;31519;45.408;10.962;2023-03-04T07:17:32;100928.94;;;11.39;72.40
45813;BME280;31519;45.408;10.962;2023-03-04T07:20:01;100931.84;;;11.78;70.53
45813;BME280;31519;45.408;10.962;2023-03-04T07:22:29;100933.94;;;11.81;69.97
45813;BME280;31519;45.408;10.962;2023-03-04T07:24:57;100927.81;;;12.03;69.19
45813;BME280;31519;45.408;10.962;2023-03-04T07:27:25;100928.19;;;12.10;69.53
45813;BME280;31519;45.408;10.962;2023-03-04T07:29:52;100932.69;;;12.23;69.30
45813;BME280;31519;45.408;10.962;2023-03-04T07:32:20;100931.78;;;12.28;69.04
45813;BME280;31519;45.408;10.962;2023-03-04T07:34:48;100921.03;;;12.41;68.20
45813;BME280;31519;45.408;10.962;2023-03-04T07:37:16;100927.69;;;12.53;67.54
45813;BME280;31519;45.408;10.962;2023-03-04T07:39:44;100927.00;;;12.47;67.98
45813;BME280;31519;45.408;10.962;2023-03-04T07:42:11;100925.19;;;12.87;66.55
45813;BME280;31519;45.408;10.962;2023-03-04T07:44:41;100922.38;;;12.92;65.98
45813;BME280;31519;45.408;10.962;2023-03-04T07:47:09;100931.47;;;13.22;64.98
45813;BME280;31519;45.408;10.962;2023-03-04T07:49:37;100935.00;;;13.09;65.03
45813;BME280;31519;45.408;10.962;2023-03-04T07:52:05;100924.91;;;12.66;66.33
45813;BME280;31519;45.408;10.962;2023-03-04T07:54:32;100925.16;;;12.78;65.60
45813;BME280;31519;45.408;10.962;2023-03-04T07:57:00;100924.13;;;12.97;66.00
45813;BME280;31519;45.408;10.962;2023-03-04T07:59:28;100924.16;;;13.05;64.90
45813;BME280;31519;45.408;10.962;2023-03-04T08:01:55;100928.81;;;12.91;64.43
45813;BME280;31519;45.408;10.962;2023-03-04T08:04:23;100926.91;;;12.83;64.81
45813;BME280;31519;45.408;10.962;2023-03-04T08:06:51;100934.78;;;13.19;63.88
45813;BME280;31519;45.408;10.962;2023-03-04T08:09:19;100925.31;;;13.13;63.77
45813;BME280;31519;45.408;10.962;2023-03-04T08:11:47;100929.56;;;13.14;63.28
45813;BME280;31519;45.408;10.962;2023-03-04T08:14:15;100923.38;;;13.96;61.81
45813;BME280;31519;45.408;10.962;2023-03-04T08:16:43;100923.38;;;14.04;61.38
45813;BME280;31519;45.408;10.962;2023-03-04T08:19:11;100923.84;;;13.63;61.29
45813;BME280;31519;45.408;10.962;2023-03-04T08:21:39;100928.81;;;13.39;62.05
45813;BME280;31519;45.408;10.962;2023-03-04T08:24:07;100923.34;;;13.61;62.33
45813;BME280;31519;45.408;10.962;2023-03-04T08:26:39;100915.03;;;13.97;61.77
45813;BME280;31519;45.408;10.962;2023-03-04T08:29:10;100920.22;;;14.19;60.71
45813;BME280;31519;45.408;10.962;2023-03-04T08:31:38;100914.72;;;14.16;60.75
45813;BME280;31519;45.408;10.962;2023-03-04T08:34:07;100916.84;;;14.57;59.38
45813;BME280;31519;45.408;10.962;2023-03-04T08:36:36;100917.66;;;14.40;60.87
45813;BME280;31519;45.408;10.962;2023-03-04T08:39:04;100912.06;;;14.71;59.83
45813;BME280;31519;45.408;10.962;2023-03-04T08:41:32;100911.16;;;14.58;59.04
45813;BME280;31519;45.408;10.962;2023-03-04T08:44:00;100901.41;;;14.45;59.83
45813;BME280;31519;45.408;10.962;2023-03-04T08:46:29;100906.25;;;14.69;57.72
45813;BME280;31519;45.408;10.962;2023-03-04T08:48:57;100908.84;;;14.40;58.45
45813;BME280;31519;45.408;10.962;2023-03-04T08:51:24;100902.25;;;15.42;55.03
45813;BME280;31519;45.408;10.962;2023-03-04T08:53:52;100903.09;;;15.34;54.29
45813;BME280;31519;45.408;10.962;2023-03-04T08:56:20;100894.38;;;15.67;52.92
45813;BME280;31519;45.408;10.962;2023-03-04T08:58:48;100906.78;;;15.50;52.51
45813;BME280;31519;45.408;10.962;2023-03-04T09:01:15;100904.06;;;15.00;51.27
45813;BME280;31519;45.408;10.962;2023-03-04T09:03:57;100896.06;;;15.21;52.39
45813;BME280;31519;45.408;10.962;2023-03-04T09:06:25;100895.84;;;15.56;50.11
45813;BME280;31519;45.408;10.962;2023-03-04T09:08:53;100894.84;;;15.10;49.91
45813;BME280;31519;45.408;10.962;2023-03-04T09:11:20;100891.00;;;15.70;49.80
45813;BME280;31519;45.408;10.962;2023-03-04T09:13:48;100901.00;;;15.81;50.31
45813;BME280;31519;45.408;10.962;2023-03-04T09:16:18;100895.00;;;15.84;51.17
45813;BME280;31519;45.408;10.962;2023-03-04T09:18:46;100895.56;;;16.11;50.65
45813;BME280;31519;45.408;10.962;2023-03-04T09:21:13;100892.91;;;16.68;48.86
45813;BME280;31519;45.408;10.962;2023-03-04T09:23:41;100891.44;;;16.70;46.57
45813;BME280;31519;45.408;10.962;2023-03-04T09:26:43;100887.72;;;16.18;47.88
45813;BME280;31519;45.408;10.962;2023-03-04T09:29:03;100892.63;;;15.83;48.67
45813;BME280;31519;45.408;10.962;2023-03-04T09:31:31;100886.88;;;16.26;47.68
45813;BME280;31519;45.408;10.962;2023-03-04T09:33:59;100886.53;;;15.94;47.60
45813;BME280;31519;45.408;10.962;2023-03-04T09:36:27;100882.38;;;16.75;46.16
45813;BME280;31519;45.408;10.962;2023-03-04T09:38:57;100888.09;;;16.73;46.80
45813;BME280;31519;45.408;10.962;2023-03-04T09:41:26;100877.44;;;17.01;45.18
45813;BME280;31519;45.408;10.962;2023-03-04T09:43:56;100884.50;;;16.69;46.12
45813;BME280;31519;45.408;10.962;2023-03-04T09:46:35;100888.66;;;16.91;46.42
45813;BME280;31519;45.408;10.962;2023-03-04T09:49:05;100890.00;;;16.97;46.45
45813;BME280;31519;45.408;10.962;2023-03-04T09:54:06;100878.56;;;16.76;46.78
45813;BME280;31519;45.408;10.962;2023-03-04T09:56:38;100876.41;;;17.30;45.12
45813;BME280;31519;45.408;10.962;2023-03-04T09:59:42;100882.69;;;17.10;45.73
45813;BME280;31519;45.408;10.962;2023-03-04T10:02:06;100875.72;;;17.45;43.76
45813;BME280;31519;45.408;10.962;2023-03-04T10:04:41;100880.81;;;16.86;44.46
45813;BME280;31519;45.408;10.962;2023-03-04T10:07:16;100869.94;;;16.82;44.63
45813;BME280;31519;45.408;10.962;2023-03-04T10:10:04;100878.13;;;16.86;43.89
45813;BME280;31519;45.408;10.962;2023-03-04T10:12:33;100864.78;;;17.02;43.31
45813;BME280;31519;45.408;10.962;2023-03-04T10:15:06;100866.38;;;17.55;42.66
45813;BME280;31519;45.408;10.962;2023-03-04T10:17:39;100863.53;;;17.51;40.64
45813;BME280;31519;45.408;10.962;2023-03-04T10:22:47;100856.06;;;17.33;40.70
45813;BME280;31519;45.408;10.962;2023-03-04T10:25:17;100855.41;;;17.76;41.22
45813;BME280;31519;45.408;10.962;2023-03-04T10:27:53;100863.53;;;18.19;39.65
45813;BME280;31519;45.408;10.962;2023-03-04T10:33:15;100849.78;;;18.08;39.88
45813;BME280;31519;45.408;10.962;2023-03-04T10:35:44;100842.56;;;18.44;39.65
45813;BME280;31519;45.408;10.962;2023-03-04T10:38:13;100843.03;;;17.59;43.08
45813;BME280;31519;45.408;10.962;2023-03-04T10:40:42;100837.69;;;18.18;42.25
45813;BME280;31519;45.408;10.962;2023-03-04T10:43:15;100834.19;;;17.74;43.69
45813;BME280;31519;45.408;10.962;2023-03-04T10:45:44;100828.88;;;17.90;43.42
45813;BME280;31519;45.408;10.962;2023-03-04T10:48:46;100836.28;;;17.53;44.24
45813;BME280;31519;45.408;10.962;2023-03-04T10:53:43;100814.78;;;18.55;42.55
45813;BME280;31519;45.408;10.962;2023-03-04T11:01:44;100817.88;;;18.73;43.73
45813;BME280;31519;45.408;10.962;2023-03-04T11:04:18;100807.97;;;19.31;42.67
45813;BME280;31519;45.408;10.962;2023-03-04T11:06:46;100804.97;;;19.17;42.16
45813;BME280;31519;45.408;10.962;2023-03-04T11:09:22;100805.44;;;18.69;43.76
45813;BME280;31519;45.408;10.962;2023-03-04T11:11:52;100796.44;;;18.80;43.58
45813;BME280;31519;45.408;10.962;2023-03-04T11:16:52;100791.91;;;18.84;41.95
45813;BME280;31519;45.408;10.962;2023-03-04T11:19:21;100794.06;;;19.90;40.99
45813;BME280;31519;45.408;10.962;2023-03-04T11:21:50;100783.94;;;18.56;44.00
45813;BME280;31519;45.408;10.962;2023-03-04T11:24:20;100783.19;;;18.56;43.04
45813;BME280;31519;45.408;10.962;2023-03-04T11:26:58;100782.22;;;19.18;41.67
45813;BME280;31519;45.408;10.962;2023-03-04T11:32:19;100775.25;;;19.17;40.45
45813;BME280;31519;45.408;10.962;2023-03-04T11:34:58;100763.19;;;20.63;38.01
45813;BME280;31519;45.408;10.962;2023-03-04T11:37:29;100767.09;;;21.55;36.09
45813;BME280;31519;45.408;10.962;2023-03-04T11:42:32;100754.50;;;20.77;37.36
45813;BME280;31519;45.408;10.962;2023-03-04T11:45:02;100754.59;;;20.58;37.29
45813;BME280;31519;45.408;10.962;2023-03-04T11:47:54;100745.75;;;19.89;37.72
45813;BME280;31519;45.408;10.962;2023-03-04T11:55:28;100741.44;;;20.83;35.54
45813;BME280;31519;45.408;10.962;2023-03-04T12:00:49;100725.06;;;21.72;34.45
45813;BME280;31519;45.408;10.962;2023-03-04T12:03:26;100728.03;;;22.51;32.76
45813;BME280;31519;45.408;10.962;2023-03-04T12:14:13;100709.97;;;21.04;34.56
45813;BME280;31519;45.408;10.962;2023-03-04T12:19:25;100697.03;;;21.57;34.55
45813;BME280;31519;45.408;10.962;2023-03-04T12:22:13;100687.78;;;22.68;32.88
45813;BME280;31519;45.408;10.962;2023-03-04T12:30:08;100682.22;;;20.81;35.24
45813;BME280;31519;45.408;10.962;2023-03-04T12:32:50;100674.31;;;21.32;34.03
45813;BME280;31519;45.408;10.962;2023-03-04T12:35:35;100672.50;;;23.39;31.88
45813;BME280;31519;45.408;10.962;2023-03-04T12:43:51;100660.53;;;21.92;32.12
45813;BME280;31519;45.408;10.962;2023-03-04T12:51:31;100650.31;;;21.71;32.90
45813;BME280;31519;45.408;10.962;2023-03-04T12:59:35;100639.16;;;23.67;30.73
45813;BME280;31519;45.408;10.962;2023-03-04T13:04:52;100628.94;;;21.66;32.51
45813;BME280;31519;45.408;10.962;2023-03-04T13:09:56;100628.97;;;21.70;33.17
45813;BME280;31519;45.408;10.962;2023-03-04T13:12:25;100617.69;;;23.02;31.17
45813;BME280;31519;45.408;10.962;2023-03-04T13:17:43;100615.81;;;23.80;30.27
45813;BME280;31519;45.408;10.962;2023-03-04T13:22:55;100620.22;;;21.90;32.49
45813;BME280;31519;45.408;10.962;2023-03-04T13:25:31;100610.19;;;21.47;33.80
45813;BME280;31519;45.408;10.962;2023-03-04T13:46:37;100586.66;;;23.13;31.67
45813;BME280;31519;45.408;10.962;2023-03-04T13:51:36;100586.34;;;22.25;32.97
45813;BME280;31519;45.408;10.962;2023-03-04T13:56:39;100577.34;;;20.41;35.71
45813;BME280;31519;45.408;10.962;2023-03-04T14:04:16;100568.50;;;21.62;34.61
45813;BME280;31519;45.408;10.962;2023-03-04T14:06:45;100567.59;;;21.44;34.19
45813;BME280;31519;45.408;10.962;2023-03-04T14:09:15;100578.53;;;20.44;36.22
45813;BME280;31519;45.408;10.962;2023-03-04T14:11:43;100563.97;;;21.80;34.50
45813;BME280;31519;45.408;10.962;2023-03-04T14:14:12;100557.00;;;20.54;35.77
45813;BME280;31519;45.408;10.962;2023-03-04T14:16:51;100555.00;;;22.38;33.56
45813;BME280;31519;45.408;10.962;2023-03-04T14:19:27;100552.84;;;21.41;34.01
45813;BME280;31519;45.408;10.962;2023-03-04T14:21:55;100555.53;;;21.38;34.35
45813;BME280;31519;45.408;10.962;2023-03-04T14:24:24;100549.41;;;20.67;35.55
45813;BME280;31519;45.408;10.962;2023-03-04T14:27:11;100552.31;;;19.91;36.66
45813;BME280;31519;45.408;10.962;2023-03-04T14:29:39;100546.09;;;19.61;37.32
45813;BME280;31519;45.408;10.962;2023-03-04T14:32:09;100547.13;;;19.79;36.71
45813;BME280;31519;45.408;10.962;2023-03-04T14:34:38;100541.56;;;20.92;35.58
45813;BME280;31519;45.408;10.962;2023-03-04T14:40:00;100543.22;;;19.51;37.46
45813;BME280;31519;45.408;10.962;2023-03-04T14:42:34;100533.44;;;21.36;34.91